createdAt,value
2022-10-19T00:01:12.625Z,6.07
2022-10-19T00:04:02.471Z,5.73
2022-10-19T00:06:52.088Z,7.00
2022-10-19T00:09:39.079Z,6.70
2022-10-19T00:12:26.461Z,7.40
2022-10-19T00:15:13.473Z,8.23
2022-10-19T00:18:02.123Z,8.23
2022-10-19T00:20:49.169Z,8.00
2022-10-19T00:23:36.298Z,7.00
2022-10-19T00:26:23.331Z,5.87
2022-10-19T00:29:10.539Z,6.90
2022-10-19T00:31:57.182Z,7.00
2022-10-19T00:34:45.073Z,6.50
2022-10-19T00:37:31.772Z,7.00
2022-10-19T00:40:18.911Z,5.93
2022-10-19T00:43:07.004Z,6.43
2022-10-19T00:45:54.776Z,6.50
2022-10-19T00:48:41.869Z,6.27
2022-10-19T00:51:30.847Z,6.70
2022-10-19T00:54:20.007Z,6.37
2022-10-19T00:57:07.899Z,7.73
2022-10-19T00:59:55.261Z,6.73
2022-10-19T01:02:42.049Z,7.30
2022-10-19T01:05:29.264Z,6.80
2022-10-19T01:08:17.663Z,7.37
2022-10-19T01:11:14.148Z,6.40
2022-10-19T01:14:06.209Z,6.90
2022-10-19T01:16:56.228Z,7.63
2022-10-19T01:20:04.124Z,6.30
2022-10-19T01:22:58.585Z,6.70
2022-10-19T01:25:53.554Z,7.13
2022-10-19T01:28:46.254Z,6.43
2022-10-19T01:31:36.425Z,6.73
2022-10-19T01:34:26.325Z,6.77
2022-10-19T01:37:19.014Z,6.37
2022-10-19T01:40:07.151Z,6.83
2022-10-19T01:42:59.004Z,7.70
2022-10-19T01:45:49.806Z,8.20
2022-10-19T01:48:41.402Z,7.10
2022-10-19T01:51:30.644Z,7.90
2022-10-19T01:54:20.596Z,7.47
2022-10-19T01:57:09.390Z,7.83
2022-10-19T01:59:56.770Z,8.23
2022-10-19T02:02:47.158Z,7.83
2022-10-19T02:05:37.171Z,8.23
2022-10-19T02:08:27.001Z,9.67
2022-10-19T02:11:14.308Z,9.87
2022-10-19T02:14:05.717Z,11.03
2022-10-19T02:16:58.357Z,12.27
2022-10-19T02:19:45.812Z,13.10
2022-10-19T02:22:34.614Z,13.83
2022-10-19T02:25:21.545Z,12.87
2022-10-19T02:28:09.171Z,13.03
2022-10-19T02:30:55.782Z,13.93
2022-10-19T02:33:42.614Z,13.93
2022-10-19T02:36:29.393Z,12.73
2022-10-19T02:39:17.638Z,12.20
2022-10-19T02:42:07.465Z,13.83
2022-10-19T02:44:58.072Z,14.87
2022-10-19T02:47:46.707Z,15.07
2022-10-19T02:50:34.029Z,14.10
2022-10-19T02:53:21.239Z,12.87
2022-10-19T02:56:10.610Z,13.33
2022-10-19T02:58:58.516Z,14.30
2022-10-19T03:01:45.455Z,13.57
2022-10-19T03:04:32.888Z,14.37
2022-10-19T03:07:21.577Z,14.07
2022-10-19T03:10:08.992Z,14.40
2022-10-19T03:12:58.797Z,13.87
2022-10-19T03:15:45.597Z,14.00
2022-10-19T03:18:32.547Z,14.70
2022-10-19T03:21:20.220Z,17.67
2022-10-19T03:24:07.948Z,17.83
2022-10-19T03:26:54.915Z,18.90
2022-10-19T03:29:43.291Z,19.37
2022-10-19T03:32:30.554Z,18.23
2022-10-19T03:35:17.785Z,21.77
2022-10-19T03:38:04.453Z,19.00
2022-10-19T03:40:51.476Z,20.67
2022-10-19T03:43:38.384Z,19.63
2022-10-19T03:46:26.691Z,19.43
2022-10-19T03:49:13.732Z,20.17
2022-10-19T03:52:00.427Z,19.93
2022-10-19T03:54:47.700Z,18.90
2022-10-19T03:57:34.849Z,17.87
2022-10-19T04:00:22.132Z,17.50
2022-10-19T04:03:10.375Z,17.27
2022-10-19T04:06:03.670Z,17.60
2022-10-19T04:08:51.004Z,17.50
2022-10-19T04:11:37.935Z,17.20
2022-10-19T04:14:32.445Z,18.23
2022-10-19T04:17:39.178Z,17.20
2022-10-19T04:20:27.569Z,16.53
2022-10-19T04:23:14.346Z,17.23
2022-10-19T04:26:01.972Z,16.20
2022-10-19T04:28:49.018Z,16.20
2022-10-19T04:31:36.059Z,16.50
2022-10-19T04:34:23.078Z,16.37
2022-10-19T04:37:11.003Z,14.67
2022-10-19T04:39:57.726Z,15.90
2022-10-19T04:42:44.969Z,15.67
2022-10-19T04:45:31.932Z,15.70
2022-10-19T04:48:18.851Z,14.97
2022-10-19T04:51:06.365Z,14.97
2022-10-19T04:53:59.318Z,15.47
2022-10-19T04:56:47.055Z,15.20
2022-10-19T04:59:34.132Z,15.20
2022-10-19T05:02:20.909Z,14.47
2022-10-19T05:05:08.700Z,14.60
2022-10-19T05:07:56.007Z,15.00
2022-10-19T05:10:47.008Z,15.70
2022-10-19T05:13:35.225Z,14.93
2022-10-19T05:16:23.493Z,14.43
2022-10-19T05:19:14.355Z,12.93
2022-10-19T05:22:01.436Z,13.13
2022-10-19T05:24:50.235Z,12.67
2022-10-19T05:27:39.809Z,12.50
2022-10-19T05:30:26.526Z,13.90
2022-10-19T05:33:13.429Z,13.80
2022-10-19T05:36:00.387Z,14.17
2022-10-19T05:38:48.396Z,14.10
2022-10-19T05:41:35.532Z,15.00
2022-10-19T05:44:24.763Z,16.20
2022-10-19T05:47:11.832Z,15.77
2022-10-19T05:49:58.917Z,16.03
2022-10-19T05:52:45.993Z,15.30
2022-10-19T05:55:36.340Z,18.53
2022-10-19T05:58:23.450Z,15.70
2022-10-19T06:01:13.945Z,18.80
2022-10-19T06:04:01.529Z,16.83
2022-10-19T06:06:48.842Z,16.87
2022-10-19T06:09:36.917Z,15.73
2022-10-19T06:12:25.117Z,15.23
2022-10-19T06:15:12.547Z,16.50
2022-10-19T06:18:00.883Z,14.50
2022-10-19T06:20:47.877Z,14.03
2022-10-19T06:23:35.610Z,16.53
2022-10-19T06:26:22.702Z,14.80
2022-10-19T06:29:09.721Z,14.77
2022-10-19T06:31:56.588Z,14.43
2022-10-19T06:34:44.822Z,13.40
2022-10-19T06:37:32.522Z,13.40
2022-10-19T06:40:19.936Z,14.33
2022-10-19T06:43:07.044Z,14.70
2022-10-19T06:45:54.154Z,13.63
2022-10-19T06:48:41.300Z,14.37
2022-10-19T06:51:30.460Z,14.80
2022-10-19T06:54:17.515Z,14.43
2022-10-19T06:57:04.539Z,16.13
2022-10-19T06:59:53.019Z,16.67
2022-10-19T07:02:40.754Z,14.70
2022-10-19T07:05:27.988Z,14.90
2022-10-19T07:08:16.301Z,16.00
2022-10-19T07:11:04.266Z,17.37
2022-10-19T07:13:51.419Z,15.33
2022-10-19T07:16:38.444Z,17.23
2022-10-19T07:19:27.732Z,16.60
2022-10-19T07:22:20.367Z,16.63
2022-10-19T07:25:13.011Z,14.37
2022-10-19T07:27:59.737Z,14.47
2022-10-19T07:30:46.736Z,13.77
2022-10-19T07:33:33.697Z,13.33
2022-10-19T07:36:21.348Z,13.20
2022-10-19T07:39:10.335Z,12.37
2022-10-19T07:41:58.596Z,12.33
2022-10-19T07:44:45.846Z,11.50
2022-10-19T07:47:33.632Z,10.77
2022-10-19T07:50:20.879Z,11.50
2022-10-19T07:53:08.045Z,10.13
2022-10-19T07:55:55.249Z,10.33
2022-10-19T07:58:43.490Z,11.07
2022-10-19T08:01:31.208Z,10.23
2022-10-19T08:07:25.778Z,8.67
2022-10-19T08:10:12.926Z,10.07
2022-10-19T08:12:59.793Z,8.77
2022-10-19T08:15:47.677Z,10.87
2022-10-19T08:18:36.024Z,9.83
2022-10-19T08:21:23.137Z,9.70
2022-10-19T08:24:09.844Z,8.87
2022-10-19T08:26:56.824Z,9.67
2022-10-19T08:29:43.888Z,11.03
2022-10-19T08:32:33.288Z,10.60
2022-10-19T08:35:20.574Z,8.87
2022-10-19T08:38:08.719Z,9.83
2022-10-19T08:40:55.625Z,8.17
2022-10-19T08:43:51.885Z,9.37
2022-10-19T08:46:47.213Z,9.17
2022-10-19T08:49:35.684Z,8.97
2022-10-19T08:52:25.200Z,8.13
2022-10-19T08:55:18.100Z,8.40
2022-10-19T08:58:23.014Z,8.67
2022-10-19T09:01:15.255Z,7.23
2022-10-19T09:04:05.816Z,7.17
2022-10-19T09:07:04.286Z,7.67
2022-10-19T09:09:55.904Z,7.17
2022-10-19T09:12:46.631Z,6.90
2022-10-19T09:15:40.724Z,7.43
2022-10-19T09:18:29.760Z,6.23
2022-10-19T09:21:26.022Z,7.80
2022-10-19T09:24:30.270Z,7.27
2022-10-19T09:27:22.595Z,6.87
2022-10-19T09:30:19.265Z,6.33
2022-10-19T09:33:16.699Z,6.67
2022-10-19T09:36:05.279Z,5.70
2022-10-19T09:38:53.473Z,5.13
2022-10-19T09:41:48.080Z,3.80
2022-10-19T09:44:35.384Z,3.70
2022-10-19T09:47:34.827Z,3.67
2022-10-19T09:50:24.329Z,4.33
2022-10-19T09:53:18.862Z,4.20
2022-10-19T09:56:08.649Z,4.10
2022-10-19T09:58:59.532Z,3.73
2022-10-19T10:01:46.941Z,4.40
2022-10-19T10:04:36.733Z,3.57
2022-10-19T10:07:31.104Z,3.90
2022-10-19T10:10:26.768Z,3.40
2022-10-19T10:13:19.885Z,3.50
2022-10-19T10:16:11.045Z,3.60
2022-10-19T10:19:01.299Z,3.70
2022-10-19T10:21:55.838Z,3.50
2022-10-19T10:24:54.555Z,3.10
2022-10-19T10:27:41.586Z,3.90
2022-10-19T10:30:33.404Z,3.13
2022-10-19T10:33:43.779Z,4.23
2022-10-19T10:36:32.292Z,3.40
2022-10-19T10:39:21.171Z,3.17
2022-10-19T10:42:14.671Z,3.43
2022-10-19T10:45:02.818Z,3.20
2022-10-19T10:47:50.362Z,3.17
2022-10-19T10:50:39.387Z,2.90
2022-10-19T10:53:47.013Z,2.70
2022-10-19T10:56:35.306Z,3.37
2022-10-19T10:59:27.151Z,3.27
2022-10-19T11:05:18.885Z,3.30
2022-10-19T11:08:16.189Z,3.70
2022-10-19T11:11:13.973Z,3.07
2022-10-19T11:14:05.934Z,3.20
2022-10-19T11:16:54.928Z,3.30
2022-10-19T11:19:44.383Z,3.27
2022-10-19T11:22:39.351Z,2.63
2022-10-19T11:25:35.473Z,2.90
2022-10-19T11:28:40.207Z,2.73
2022-10-19T11:31:37.288Z,2.50
2022-10-19T11:34:47.129Z,2.63
2022-10-19T11:37:49.486Z,2.93
2022-10-19T11:44:15.024Z,2.50
2022-10-19T11:47:18.194Z,2.60
2022-10-19T11:50:18.235Z,2.60
2022-10-19T11:53:13.326Z,2.93
2022-10-19T11:56:08.961Z,2.40
2022-10-19T11:59:03.431Z,2.70
2022-10-19T12:01:58.673Z,2.50
2022-10-19T12:04:55.309Z,2.30
2022-10-19T12:07:55.434Z,2.43
2022-10-19T12:10:51.297Z,2.40
2022-10-19T12:13:44.694Z,2.17
2022-10-19T12:16:38.394Z,2.43
2022-10-19T12:19:28.960Z,2.67
2022-10-19T12:22:20.639Z,3.03
2022-10-19T12:25:15.331Z,2.70
2022-10-19T12:28:30.585Z,2.93
2022-10-19T12:31:21.211Z,2.33
2022-10-19T12:34:21.628Z,2.30
2022-10-19T12:37:15.947Z,2.30
2022-10-19T12:40:09.388Z,2.70
2022-10-19T12:43:04.381Z,2.60
2022-10-19T12:46:03.223Z,2.10
2022-10-19T12:49:41.034Z,2.53
2022-10-19T12:52:44.434Z,2.30
2022-10-19T12:55:34.871Z,2.47
2022-10-19T12:58:23.988Z,2.58
2022-10-19T13:01:16.853Z,2.20
2022-10-19T13:04:13.473Z,1.85
2022-10-19T13:07:02.825Z,2.25
2022-10-19T13:09:51.100Z,1.98
2022-10-19T13:12:47.209Z,2.20
2022-10-19T13:15:58.618Z,2.20
2022-10-19T13:19:07.344Z,2.35
2022-10-19T13:22:15.435Z,2.47
2022-10-19T13:25:28.080Z,2.35
2022-10-19T13:28:38.006Z,2.03
2022-10-19T13:31:26.551Z,2.15
2022-10-19T13:34:17.456Z,2.55
2022-10-19T13:37:05.784Z,2.17
2022-10-19T13:39:52.803Z,1.93
2022-10-19T13:42:41.432Z,1.90
2022-10-19T13:45:28.968Z,2.10
2022-10-19T13:48:25.406Z,2.30
2022-10-19T13:51:19.612Z,2.37
2022-10-19T13:54:12.434Z,1.93
2022-10-19T13:57:11.668Z,2.47
2022-10-19T14:00:16.271Z,2.13
2022-10-19T14:03:11.749Z,1.73
2022-10-19T14:06:06.574Z,2.33
2022-10-19T14:09:08.731Z,2.60
2022-10-19T14:12:04.276Z,2.07
2022-10-19T14:14:53.396Z,2.10
2022-10-19T14:17:43.851Z,2.13
2022-10-19T14:20:32.848Z,2.57
2022-10-19T14:23:20.279Z,1.97
2022-10-19T14:26:08.944Z,2.30
2022-10-19T14:28:58.108Z,2.20
2022-10-19T14:31:45.050Z,2.53
2022-10-19T14:34:33.554Z,2.33
2022-10-19T14:37:21.372Z,2.20
2022-10-19T14:40:09.593Z,3.80
2022-10-19T14:42:56.798Z,2.57
2022-10-19T14:45:43.996Z,4.13
2022-10-19T14:48:31.157Z,2.20
2022-10-19T14:51:29.163Z,2.27
2022-10-19T14:54:19.476Z,2.50
2022-10-19T14:57:08.681Z,2.00
2022-10-19T14:59:59.125Z,2.23
2022-10-19T15:02:48.551Z,2.60
2022-10-19T15:05:42.449Z,2.47
2022-10-19T15:08:34.812Z,2.43
2022-10-19T15:11:25.071Z,2.57
2022-10-19T15:14:15.864Z,2.33
2022-10-19T15:17:05.694Z,2.73
2022-10-19T15:19:53.579Z,2.50
2022-10-19T15:22:41.714Z,2.47
2022-10-19T15:25:36.832Z,2.63
2022-10-19T15:28:34.903Z,3.10
2022-10-19T15:31:28.069Z,2.77
2022-10-19T15:34:23.621Z,2.50
2022-10-19T15:37:17.291Z,2.50
2022-10-19T15:40:12.073Z,3.30
2022-10-19T15:43:00.468Z,2.60
2022-10-19T15:48:55.240Z,5.67
2022-10-19T15:51:45.604Z,10.77
2022-10-19T15:54:32.674Z,4.83
2022-10-19T15:57:28.330Z,3.63
2022-10-19T16:00:20.277Z,3.93
2022-10-19T16:03:07.021Z,3.43
2022-10-19T16:05:54.272Z,3.90
2022-10-19T16:08:40.964Z,3.30
2022-10-19T16:11:29.227Z,4.03
2022-10-19T16:17:05.548Z,3.53
2022-10-19T16:19:52.923Z,4.10
2022-10-19T16:22:40.124Z,3.70
2022-10-19T16:25:27.209Z,3.90
2022-10-19T16:28:13.920Z,4.33
2022-10-19T16:31:00.855Z,3.70
2022-10-19T16:36:53.749Z,3.67
2022-10-19T16:39:40.595Z,3.33
2022-10-19T16:42:30.402Z,4.60
2022-10-19T16:45:18.868Z,9.23
2022-10-19T16:48:05.862Z,5.43
2022-10-19T16:51:21.936Z,4.00
2022-10-19T16:54:09.494Z,4.20
2022-10-19T16:56:56.475Z,4.27
2022-10-19T16:59:43.636Z,4.80
2022-10-19T17:02:30.816Z,5.07
2022-10-19T17:05:18.003Z,5.00
2022-10-19T17:08:06.864Z,5.30
2022-10-19T17:10:54.350Z,8.27
2022-10-19T17:13:42.013Z,7.93
2022-10-19T17:16:30.223Z,4.00
2022-10-19T17:19:17.219Z,5.50
2022-10-19T17:22:05.379Z,4.90
2022-10-19T17:24:55.646Z,5.53
2022-10-19T17:27:42.583Z,4.97
2022-10-19T17:30:29.594Z,6.07
2022-10-19T17:33:16.747Z,5.80
2022-10-19T17:36:08.600Z,6.00
2022-10-19T17:38:55.693Z,6.60
2022-10-19T17:41:43.372Z,6.33
2022-10-19T17:44:31.105Z,5.87
2022-10-19T17:47:18.720Z,6.80
2022-10-19T17:50:06.092Z,6.90
2022-10-19T17:52:52.744Z,6.80
2022-10-19T17:55:39.756Z,7.10
2022-10-19T17:58:28.299Z,6.80
2022-10-19T18:01:15.596Z,7.37
2022-10-19T18:04:02.780Z,7.03
2022-10-19T18:06:49.901Z,6.57
2022-10-19T18:09:36.898Z,7.20
2022-10-19T18:12:24.085Z,7.60
2022-10-19T18:15:12.247Z,7.93
2022-10-19T18:18:01.999Z,8.73
2022-10-19T18:20:48.837Z,7.30
2022-10-19T18:23:35.940Z,7.33
2022-10-19T18:26:23.550Z,6.77
2022-10-19T18:29:12.348Z,7.53
2022-10-19T18:32:01.452Z,7.10
2022-10-19T18:34:48.876Z,7.30
2022-10-19T18:37:36.073Z,7.57
2022-10-19T18:40:23.125Z,8.37
2022-10-19T18:43:09.828Z,7.80
2022-10-19T18:45:58.630Z,7.60
2022-10-19T18:48:46.981Z,7.37
2022-10-19T18:51:34.460Z,8.00
2022-10-19T18:54:21.561Z,8.30
2022-10-19T18:57:08.518Z,7.97
2022-10-19T18:59:55.572Z,8.97
2022-10-19T19:02:46.903Z,7.57
2022-10-19T19:05:35.053Z,8.13
2022-10-19T19:08:22.088Z,9.13
2022-10-19T19:11:12.506Z,9.73
2022-10-19T19:14:00.904Z,8.70
2022-10-19T19:16:47.728Z,8.50
2022-10-19T19:19:34.819Z,8.50
2022-10-19T19:22:26.008Z,9.20
2022-10-19T19:25:13.243Z,8.67
2022-10-19T19:28:00.415Z,7.93
2022-10-19T19:30:47.803Z,7.90
2022-10-19T19:33:34.777Z,8.70
2022-10-19T19:36:21.960Z,8.60
2022-10-19T19:39:10.323Z,8.73
2022-10-19T19:41:57.125Z,8.43
2022-10-19T19:44:44.313Z,8.00
2022-10-19T19:47:31.299Z,9.27
2022-10-19T19:50:18.583Z,10.53
2022-10-19T19:53:05.714Z,9.07
2022-10-19T19:55:54.381Z,8.03
2022-10-19T19:58:41.871Z,7.97
2022-10-19T20:01:29.465Z,6.60
2022-10-19T20:04:16.678Z,7.67
2022-10-19T20:07:03.543Z,6.73
2022-10-19T20:09:50.521Z,7.43
2022-10-19T20:12:39.472Z,7.57
2022-10-19T20:15:26.953Z,6.83
2022-10-19T20:18:13.762Z,6.57
2022-10-19T20:21:02.793Z,6.93
2022-10-19T20:23:50.001Z,7.53
2022-10-19T20:26:37.118Z,7.70
2022-10-19T20:29:24.974Z,6.97
2022-10-19T20:32:12.063Z,7.60
2022-10-19T20:34:59.226Z,7.67
2022-10-19T20:37:49.234Z,7.80
2022-10-19T20:40:36.449Z,7.20
2022-10-19T20:43:23.466Z,7.97
2022-10-19T20:46:13.137Z,8.53
2022-10-19T20:49:01.530Z,7.57
2022-10-19T20:51:48.703Z,8.13
2022-10-19T20:54:35.767Z,7.87
2022-10-19T20:57:23.046Z,7.40
2022-10-19T21:00:11.113Z,7.70
2022-10-19T21:02:59.432Z,7.67
2022-10-19T21:05:46.249Z,6.87
2022-10-19T21:08:33.268Z,8.03
2022-10-19T21:11:21.218Z,7.27
2022-10-19T21:14:09.355Z,7.53
2022-10-19T21:16:57.490Z,7.17
2022-10-19T21:19:45.908Z,6.50
2022-10-19T21:22:39.146Z,7.20
2022-10-19T21:25:30.163Z,6.67
2022-10-19T21:28:17.193Z,7.63
2022-10-19T21:31:05.121Z,7.90
2022-10-19T21:33:52.141Z,8.03
2022-10-19T21:36:40.749Z,8.57
2022-10-19T21:39:27.221Z,8.00
2022-10-19T21:42:14.071Z,8.10
2022-10-19T21:45:11.874Z,7.50
2022-10-19T21:48:08.696Z,8.00
2022-10-19T21:50:55.814Z,7.83
2022-10-19T21:56:50.405Z,8.40
2022-10-19T21:59:38.010Z,7.70
2022-10-19T22:02:24.955Z,8.07
2022-10-19T22:05:12.002Z,7.90
2022-10-19T22:07:59.272Z,7.30
2022-10-19T22:10:47.597Z,10.67
2022-10-19T22:13:34.790Z,8.10
2022-10-19T22:16:22.796Z,7.53
2022-10-19T22:19:10.468Z,8.57
2022-10-19T22:21:57.315Z,8.10
2022-10-19T22:24:44.406Z,8.00
2022-10-19T22:27:32.633Z,8.47
2022-10-19T22:30:19.808Z,8.17
2022-10-19T22:33:08.221Z,7.83
2022-10-19T22:35:56.490Z,8.37
2022-10-19T22:38:44.041Z,8.90
2022-10-19T22:41:31.111Z,9.03
2022-10-19T22:44:19.825Z,8.73
2022-10-19T22:47:07.657Z,9.63
2022-10-19T22:49:54.943Z,8.80
2022-10-19T22:52:43.109Z,8.57
2022-10-19T22:55:30.104Z,8.50
2022-10-19T22:58:17.688Z,8.13
2022-10-19T23:01:06.954Z,9.03
2022-10-19T23:03:54.101Z,8.17
2022-10-19T23:06:41.148Z,10.20
2022-10-19T23:09:28.354Z,8.73
2022-10-19T23:12:15.503Z,8.37
2022-10-19T23:15:02.537Z,8.33
2022-10-19T23:17:50.992Z,8.33
2022-10-19T23:20:38.195Z,8.37
2022-10-19T23:23:25.455Z,9.20
2022-10-19T23:26:13.667Z,8.93
2022-10-19T23:29:00.666Z,8.93
2022-10-19T23:31:48.370Z,8.90
2022-10-19T23:34:36.366Z,9.13
2022-10-19T23:37:23.095Z,9.60
2022-10-19T23:40:10.439Z,8.63
2022-10-19T23:42:57.343Z,9.30
2022-10-19T23:45:45.969Z,8.77
2022-10-19T23:48:32.788Z,8.63
2022-10-19T23:51:22.688Z,8.77
2022-10-19T23:54:09.766Z,9.83
2022-10-19T23:56:56.601Z,9.63
2022-10-19T23:59:43.862Z,9.33
